Terminal Aerodrome Forecast
Issued by NWS

Home | Current Version | Previous Version | Graphics & Text | Print | Product List | Glossary On
Versions: 1 2 3 4 5 6 7 8 9 10 11 12 13 14 15 16 17 18 19 20 21
000
FTUS43 KGRB 031400 AAA
TAFAUW
TAF AMD
KAUW 031400Z 0314/0412 36009G14KT 4SM -SN SCT010 OVC025
      TEMPO 0314/0316 1 1/2SM -SN BR BKN010
     FM032000 30012G18KT P6SM BKN015
     FM032300 30008KT P6SM SCT015 BKN030
     FM040400 30004KT P6SM SCT030 BKN100=

USA.gov is the U.S. government's official web portal to all federal, state and local government web resources and services.